< < Back
Terminal Aerodrome Forecast


Current Version              Previous Versions:   1  2  3  4  5  6  7  8  9  

Terminal Aerodrome Forecast

173
FTUS42 KTAE 242300
TAFVLD
TAF
KVLD 242320Z 2500/2524 33005KT P6SM SKC=



Latest METAR

285
SAUS70 KWBC 251400 RRI
MTRVLD
METAR KVLD 251353Z 00000KT 10SM CLR 16/10 A3005 RMK AO2 SLP184
T01610100


USA.gov is the U.S. government's official web portal to all federal, state and local government web resources and services.